Omro, Wisconsin
Current Conditions -  °F | °C
As of 12:53 PM on Friday 24 Oct 2014 (Local Time) from KOSH Reporting Station
Overcast Overcast  
Wind Chill: 52°   Ceiling: 400
Heat Index: 52°   Visibility: 7mi
Dew Point: 50°   Wind: 8mph
Humidity: 93%   Direction: 190°S
Pressure: 29.99"   Gusts: NA
Location:  44.04°N, 88.74°W
Report Text: KOSH 241753Z 19007KT 7SM OVC004 11/10 A2999 RMK AO2 SLP156 T01110100 10111 20089 58013
Loading
Personal Weather Stations






























Interactive Weather Map
Tropical Storm Tracking
New forecast layout! Learn more

10-Day Weather Forecast

Advertisements
Track Severe Weather on mobile